createdAt,value
2018-07-04T00:02:34.242Z,21.90
2018-07-04T00:05:13.778Z,21.80
2018-07-04T00:07:53.250Z,21.70
2018-07-04T00:10:32.751Z,21.70
2018-07-04T00:13:12.062Z,21.60
2018-07-04T00:18:25.092Z,21.40
2018-07-04T00:21:04.605Z,21.30
2018-07-04T00:23:44.093Z,21.50
2018-07-04T00:26:23.518Z,21.50
2018-07-04T00:29:03.002Z,21.60
2018-07-04T00:31:42.770Z,21.50
2018-07-04T00:34:22.267Z,21.50
2018-07-04T00:37:01.677Z,21.40
2018-07-04T00:39:41.096Z,21.30
2018-07-04T00:42:20.537Z,21.20
2018-07-04T00:45:00.057Z,21.10
2018-07-04T00:47:39.688Z,21.00
2018-07-04T00:50:19.132Z,20.70
2018-07-04T00:52:58.757Z,20.50
2018-07-04T00:55:38.261Z,20.50
2018-07-04T00:58:17.815Z,20.50
2018-07-04T01:00:57.437Z,20.50
2018-07-04T01:03:37.044Z,20.50
2018-07-04T01:06:10.255Z,20.40
2018-07-04T01:08:49.921Z,20.40
2018-07-04T01:11:29.348Z,20.40
2018-07-04T01:14:08.766Z,20.50
2018-07-04T01:16:42.054Z,20.60
2018-07-04T01:19:15.209Z,20.60
2018-07-04T01:21:48.318Z,20.60
2018-07-04T01:24:21.471Z,20.60
2018-07-04T01:27:01.041Z,20.50
2018-07-04T01:29:40.633Z,20.40
2018-07-04T01:32:13.808Z,20.40
2018-07-04T01:34:46.960Z,20.40
2018-07-04T01:37:26.471Z,20.30
2018-07-04T01:39:59.622Z,20.30
2018-07-04T01:42:32.605Z,20.30
2018-07-04T01:45:12.137Z,20.20
2018-07-04T01:47:45.365Z,20.20
2018-07-04T01:50:24.913Z,20.20
2018-07-04T01:53:04.418Z,20.20
2018-07-04T01:55:43.950Z,20.10
2018-07-04T01:58:23.378Z,20.20
2018-07-04T02:01:02.929Z,20.30
2018-07-04T02:03:42.210Z,20.30
2018-07-04T02:06:21.760Z,20.20
2018-07-04T02:09:01.087Z,20.10
2018-07-04T02:11:40.535Z,20.00
2018-07-04T02:14:20.106Z,19.90
2018-07-04T02:16:59.641Z,19.90
2018-07-04T02:19:38.945Z,19.80
2018-07-04T02:22:18.491Z,19.70
2018-07-04T02:24:58.078Z,19.70
2018-07-04T02:27:37.474Z,19.70
2018-07-04T02:30:16.900Z,19.60
2018-07-04T02:32:56.204Z,19.60
2018-07-04T02:35:35.735Z,19.50
2018-07-04T02:38:08.773Z,19.50
2018-07-04T02:40:42.232Z,19.30
2018-07-04T02:43:15.258Z,19.30
2018-07-04T02:45:54.802Z,19.20
2018-07-04T02:48:27.802Z,19.20
2018-07-04T02:51:00.969Z,19.10
2018-07-04T02:53:34.158Z,19.10
2018-07-04T02:56:07.358Z,19.10
2018-07-04T02:58:40.540Z,19.00
2018-07-04T03:01:13.661Z,19.00
2018-07-04T03:03:46.943Z,19.00
2018-07-04T03:06:20.041Z,19.00
2018-07-04T03:08:53.341Z,19.00
2018-07-04T03:11:26.673Z,19.00
2018-07-04T03:13:59.782Z,19.00
2018-07-04T03:16:33.052Z,18.90
2018-07-04T03:19:06.210Z,18.90
2018-07-04T03:21:39.283Z,18.90
2018-07-04T03:24:12.480Z,18.90
2018-07-04T03:29:19.450Z,18.80
2018-07-04T03:31:58.847Z,18.70
2018-07-04T03:34:38.433Z,18.70
2018-07-04T03:37:17.836Z,18.60
2018-07-04T03:39:57.470Z,18.50
2018-07-04T03:42:36.847Z,18.50
2018-07-04T03:45:16.376Z,18.50
2018-07-04T03:47:55.813Z,18.50
2018-07-04T03:50:35.295Z,18.50
2018-07-04T03:53:14.807Z,18.50
2018-07-04T03:55:54.399Z,18.50
2018-07-04T03:58:33.941Z,18.50
2018-07-04T04:01:13.499Z,18.40
2018-07-04T04:03:52.965Z,18.40
2018-07-04T04:06:32.261Z,18.40
2018-07-04T04:09:05.497Z,18.40
2018-07-04T04:11:38.660Z,18.50
2018-07-04T04:14:11.827Z,18.50
2018-07-04T04:16:45.017Z,18.50
2018-07-04T04:19:29.919Z,18.60
2018-07-04T04:22:03.354Z,18.60
2018-07-04T04:24:36.412Z,18.60
2018-07-04T04:27:09.598Z,18.60
2018-07-04T04:29:42.773Z,18.70
2018-07-04T04:32:15.913Z,18.70
2018-07-04T04:34:49.137Z,18.70
2018-07-04T04:37:28.601Z,18.70
2018-07-04T04:40:08.044Z,18.70
2018-07-04T04:42:47.557Z,18.90
2018-07-04T04:45:27.173Z,18.90
2018-07-04T04:48:06.580Z,18.80
2018-07-04T04:50:46.389Z,18.80
2018-07-04T04:53:25.681Z,18.80
2018-07-04T04:56:05.269Z,18.80
2018-07-04T04:58:44.797Z,18.90
2018-07-04T05:01:24.146Z,18.90
2018-07-04T05:04:03.707Z,18.90
2018-07-04T05:06:43.135Z,19.00
2018-07-04T05:09:22.793Z,19.00
2018-07-04T05:12:02.257Z,19.10
2018-07-04T05:14:41.698Z,19.20
2018-07-04T05:17:21.123Z,19.30
2018-07-04T05:20:00.820Z,19.30
2018-07-04T05:22:40.548Z,19.40
2018-07-04T05:25:20.003Z,19.50
2018-07-04T05:27:53.141Z,19.50
2018-07-04T05:30:32.731Z,19.60
2018-07-04T05:33:12.422Z,19.60
2018-07-04T05:35:45.863Z,19.70
2018-07-04T05:38:25.388Z,19.70
2018-07-04T05:40:58.598Z,19.80
2018-07-04T05:43:38.144Z,19.90
2018-07-04T05:46:17.502Z,20.00
2018-07-04T05:48:56.990Z,20.00
2018-07-04T05:51:36.561Z,20.10
2018-07-04T05:54:15.965Z,20.20
2018-07-04T05:56:55.437Z,20.20
2018-07-04T05:59:35.010Z,20.30
2018-07-04T06:02:14.582Z,20.40
2018-07-04T06:04:54.053Z,20.50
2018-07-04T06:07:33.524Z,20.50
2018-07-04T06:10:13.075Z,20.60
2018-07-04T06:12:52.664Z,20.70
2018-07-04T06:15:32.033Z,20.80
2018-07-04T06:20:45.052Z,21.00
2018-07-04T06:23:25.546Z,21.00
2018-07-04T06:26:05.150Z,21.20
2018-07-04T06:28:44.693Z,21.30
2018-07-04T06:31:24.138Z,21.40
2018-07-04T06:34:03.655Z,21.40
2018-07-04T06:36:43.096Z,21.50
2018-07-04T06:39:10.304Z,21.70
2018-07-04T06:41:37.409Z,21.70
2018-07-04T06:44:04.569Z,21.80
2018-07-04T06:46:31.735Z,21.90
2018-07-04T06:48:58.936Z,21.90
2018-07-04T06:51:26.062Z,22.00
2018-07-04T06:53:53.242Z,22.10
2018-07-04T06:56:20.451Z,22.20
2018-07-04T06:58:47.562Z,22.40
2018-07-04T07:01:14.773Z,22.40
2018-07-04T07:03:54.400Z,22.50
2018-07-04T07:06:33.661Z,22.50
2018-07-04T07:09:13.182Z,22.60
2018-07-04T07:11:52.981Z,22.70
2018-07-04T07:14:32.554Z,22.70
2018-07-04T07:17:11.878Z,22.80
2018-07-04T07:19:51.354Z,22.80
2018-07-04T07:22:30.757Z,22.90
2018-07-04T07:25:10.230Z,22.90
2018-07-04T07:27:49.686Z,23.00
2018-07-04T07:30:22.848Z,23.10
2018-07-04T07:33:02.493Z,23.20
2018-07-04T07:35:35.704Z,23.20
2018-07-04T07:38:15.266Z,23.30
2018-07-04T07:40:54.774Z,23.30
2018-07-04T07:43:34.172Z,23.40
2018-07-04T07:46:13.499Z,23.50
2018-07-04T07:48:53.238Z,23.60
2018-07-04T07:51:32.927Z,23.60
2018-07-04T07:54:12.353Z,23.70
2018-07-04T07:56:51.805Z,23.80
2018-07-04T07:59:31.221Z,23.80
2018-07-04T08:02:10.950Z,23.80
2018-07-04T08:04:50.458Z,23.90
2018-07-04T08:07:29.885Z,23.90
2018-07-04T08:10:09.445Z,24.00
2018-07-04T08:12:48.922Z,24.10
2018-07-04T08:15:28.158Z,24.10
2018-07-04T08:18:07.649Z,24.10
2018-07-04T08:20:47.068Z,24.20
2018-07-04T08:23:26.485Z,24.30
2018-07-04T08:26:06.005Z,24.30
2018-07-04T08:28:45.437Z,24.30
2018-07-04T08:31:25.170Z,24.40
2018-07-04T08:34:04.539Z,24.40
2018-07-04T08:36:44.096Z,24.40
2018-07-04T08:39:23.518Z,24.40
2018-07-04T08:42:03.124Z,24.50
2018-07-04T08:44:42.540Z,24.60
2018-07-04T08:47:22.003Z,24.70
2018-07-04T08:50:01.671Z,24.70
2018-07-04T08:52:41.087Z,24.70
2018-07-04T08:55:20.561Z,24.80
2018-07-04T08:58:00.119Z,24.80
2018-07-04T09:00:39.534Z,24.90
2018-07-04T09:03:19.153Z,24.90
2018-07-04T09:05:58.693Z,25.00
2018-07-04T09:08:38.104Z,25.10
2018-07-04T09:11:17.602Z,25.20
2018-07-04T09:13:56.861Z,25.30
2018-07-04T09:16:36.358Z,25.30
2018-07-04T09:19:19.432Z,25.40
2018-07-04T09:21:59.386Z,25.50
2018-07-04T09:24:38.800Z,25.50
2018-07-04T09:27:18.282Z,25.60
2018-07-04T09:29:57.691Z,25.70
2018-07-04T09:32:37.421Z,25.80
2018-07-04T09:35:16.839Z,25.90
2018-07-04T09:40:29.968Z,26.10
2018-07-04T09:43:09.395Z,26.20
2018-07-04T09:45:49.005Z,26.30
2018-07-04T09:48:28.797Z,26.50
2018-07-04T09:51:08.191Z,26.60
2018-07-04T09:53:47.648Z,26.70
2018-07-04T09:56:27.088Z,26.90
2018-07-04T09:59:06.572Z,27.00
2018-07-04T10:01:46.332Z,27.10
2018-07-04T10:04:25.709Z,27.20
2018-07-04T10:07:05.365Z,27.30
2018-07-04T10:09:44.842Z,27.50
2018-07-04T10:12:24.609Z,27.60
2018-07-04T10:15:04.006Z,27.70
2018-07-04T10:17:43.432Z,27.80
2018-07-04T10:20:22.722Z,27.90
2018-07-04T10:23:02.329Z,28.00
2018-07-04T10:25:41.603Z,28.10
2018-07-04T10:28:21.076Z,28.30
2018-07-04T10:31:00.618Z,28.40
2018-07-04T10:33:40.086Z,28.50
2018-07-04T10:36:19.485Z,28.50
2018-07-04T10:38:58.879Z,28.50
2018-07-04T10:41:38.386Z,28.60
2018-07-04T10:44:17.953Z,28.70
2018-07-04T10:46:57.411Z,28.80
2018-07-04T10:49:36.904Z,28.80
2018-07-04T10:52:16.289Z,28.90
2018-07-04T10:54:55.892Z,29.10
2018-07-04T10:57:35.363Z,29.20
2018-07-04T11:00:14.875Z,29.20
2018-07-04T11:02:54.465Z,29.30
2018-07-04T11:05:34.058Z,29.40
2018-07-04T11:08:13.610Z,29.50
2018-07-04T11:10:53.139Z,29.60
2018-07-04T11:13:32.527Z,29.80
2018-07-04T11:16:11.922Z,30.00
2018-07-04T11:18:51.444Z,30.10
2018-07-04T11:21:30.845Z,30.20
2018-07-04T11:24:10.283Z,30.20
2018-07-04T11:26:49.892Z,30.20
2018-07-04T11:29:29.294Z,30.20
2018-07-04T11:32:08.906Z,30.30
2018-07-04T11:34:48.488Z,30.60
2018-07-04T11:37:27.905Z,30.60
2018-07-04T11:40:07.412Z,30.80
2018-07-04T11:42:47.001Z,30.90
2018-07-04T11:45:26.498Z,31.00
2018-07-04T11:47:53.634Z,30.90
2018-07-04T11:50:20.798Z,30.70
2018-07-04T11:55:15.402Z,30.40
2018-07-04T11:57:42.513Z,30.30
2018-07-04T12:00:09.661Z,30.20
2018-07-04T12:02:36.803Z,30.10
2018-07-04T12:05:16.185Z,30.00
2018-07-04T12:07:43.331Z,29.90
2018-07-04T12:10:10.469Z,30.00
2018-07-04T12:12:37.614Z,29.90
2018-07-04T12:15:04.761Z,29.80
2018-07-04T12:17:31.908Z,29.80
2018-07-04T12:19:59.057Z,29.60
2018-07-04T12:22:26.253Z,29.20
2018-07-04T12:24:53.409Z,28.50
2018-07-04T12:27:20.571Z,27.80
2018-07-04T12:29:47.722Z,26.40
2018-07-04T12:32:14.880Z,24.80
2018-07-04T12:34:42.021Z,23.00
2018-07-04T12:37:09.169Z,21.70
2018-07-04T12:39:36.307Z,21.00
2018-07-04T12:42:03.646Z,20.50
2018-07-04T12:44:30.778Z,20.20
2018-07-04T12:46:57.949Z,20.10
2018-07-04T12:49:25.103Z,20.00
2018-07-04T12:51:52.261Z,20.00
2018-07-04T12:54:24.854Z,20.00
2018-07-04T12:57:04.312Z,20.20
2018-07-04T12:59:43.729Z,20.20
2018-07-04T13:02:23.361Z,20.20
2018-07-04T13:05:02.752Z,20.10
2018-07-04T13:07:42.282Z,20.10
2018-07-04T13:10:21.746Z,20.00
2018-07-04T13:13:01.201Z,19.90
2018-07-04T13:15:40.466Z,20.00
2018-07-04T13:18:19.994Z,20.00
2018-07-04T13:20:59.428Z,20.00
2018-07-04T13:23:39.772Z,20.10
2018-07-04T13:26:19.098Z,20.20
2018-07-04T13:28:58.581Z,20.20
2018-07-04T13:31:37.971Z,20.30
2018-07-04T13:34:17.516Z,20.40
2018-07-04T13:36:56.960Z,20.40
2018-07-04T13:39:36.407Z,20.50
2018-07-04T13:42:15.789Z,20.60
2018-07-04T13:44:55.282Z,20.70
2018-07-04T13:47:34.894Z,20.80
2018-07-04T13:50:14.373Z,21.00
2018-07-04T13:52:53.839Z,21.20
2018-07-04T13:55:33.295Z,21.60
2018-07-04T13:58:12.590Z,22.30
2018-07-04T14:00:52.284Z,22.90
2018-07-04T14:03:31.927Z,23.50
2018-07-04T14:06:11.290Z,24.00
2018-07-04T14:08:50.868Z,24.30
2018-07-04T14:11:30.185Z,24.20
2018-07-04T14:14:09.754Z,24.10
2018-07-04T14:16:49.285Z,24.30
2018-07-04T14:19:29.229Z,24.60
2018-07-04T14:24:42.099Z,25.50
2018-07-04T14:27:22.739Z,26.00
2018-07-04T14:30:02.346Z,26.50
2018-07-04T14:32:42.033Z,26.90
2018-07-04T14:35:21.545Z,27.30
2018-07-04T14:38:01.049Z,27.60
2018-07-04T14:40:40.493Z,27.90
2018-07-04T14:43:20.710Z,28.20
2018-07-04T14:46:00.158Z,28.50
2018-07-04T14:48:39.604Z,28.90
2018-07-04T14:51:19.193Z,29.20
2018-07-04T14:53:58.714Z,29.50
2018-07-04T14:56:38.181Z,29.70
2018-07-04T14:59:17.613Z,30.00
2018-07-04T15:01:57.084Z,30.20
2018-07-04T15:04:36.642Z,30.50
2018-07-04T15:07:15.972Z,30.80
2018-07-04T15:09:55.282Z,31.00
2018-07-04T15:12:34.733Z,31.30
2018-07-04T15:15:14.105Z,31.40
2018-07-04T15:17:53.655Z,31.10
2018-07-04T15:20:33.149Z,30.80
2018-07-04T15:23:12.686Z,30.70
2018-07-04T15:25:52.314Z,30.60
2018-07-04T15:28:31.905Z,30.40
2018-07-04T15:31:11.445Z,30.40
2018-07-04T15:33:51.059Z,30.40
2018-07-04T15:36:30.389Z,30.30
2018-07-04T15:39:09.881Z,30.30
2018-07-04T15:41:49.341Z,30.10
2018-07-04T15:44:28.895Z,29.80
2018-07-04T15:47:08.377Z,29.50
2018-07-04T15:49:50.041Z,29.30
2018-07-04T15:52:30.169Z,29.00
2018-07-04T15:55:09.457Z,28.80
2018-07-04T15:57:49.046Z,28.60
2018-07-04T16:00:30.141Z,28.10
2018-07-04T16:03:09.898Z,27.30
2018-07-04T16:05:49.585Z,24.90
2018-07-04T16:08:29.097Z,22.40
2018-07-04T16:11:08.656Z,21.30
2018-07-04T16:13:48.113Z,21.10
2018-07-04T16:16:27.435Z,20.30
2018-07-04T16:19:06.882Z,20.00
2018-07-04T16:21:46.583Z,19.80
2018-07-04T16:24:26.115Z,19.60
2018-07-04T16:27:05.621Z,19.60
2018-07-04T16:29:45.022Z,19.60
2018-07-04T16:34:57.988Z,19.60
2018-07-04T16:37:37.391Z,19.70
2018-07-04T16:40:16.885Z,19.80
2018-07-04T16:42:56.399Z,19.70
2018-07-04T16:45:35.927Z,19.70
2018-07-04T16:48:15.283Z,19.70
2018-07-04T16:50:54.813Z,19.50
2018-07-04T16:53:34.246Z,19.50
2018-07-04T16:56:13.732Z,19.50
2018-07-04T16:58:53.776Z,19.50
2018-07-04T17:01:33.245Z,19.50
2018-07-04T17:04:12.525Z,19.50
2018-07-04T17:06:51.965Z,19.60
2018-07-04T17:09:31.405Z,19.60
2018-07-04T17:12:11.204Z,19.80
2018-07-04T17:14:50.756Z,19.90
2018-07-04T17:17:30.184Z,20.00
2018-07-04T17:20:09.695Z,20.10
2018-07-04T17:22:49.157Z,20.10
2018-07-04T17:25:28.523Z,20.20
2018-07-04T17:28:08.031Z,20.30
2018-07-04T17:33:14.864Z,20.40
2018-07-04T17:35:54.397Z,20.40
2018-07-04T17:38:33.669Z,20.40
2018-07-04T17:41:13.265Z,20.30
2018-07-04T17:43:52.697Z,20.30
2018-07-04T17:46:32.165Z,20.30
2018-07-04T17:49:11.701Z,20.40
2018-07-04T17:51:51.113Z,20.40
2018-07-04T17:54:30.569Z,20.40
2018-07-04T17:57:03.725Z,20.50
2018-07-04T17:59:43.281Z,20.40
2018-07-04T18:02:22.655Z,20.40
2018-07-04T18:05:02.114Z,20.40
2018-07-04T18:07:35.107Z,20.40
2018-07-04T18:10:08.224Z,20.40
2018-07-04T18:12:41.640Z,20.40
2018-07-04T18:15:21.159Z,20.50
2018-07-04T18:18:00.606Z,20.50
2018-07-04T18:20:40.137Z,20.50
2018-07-04T18:23:19.499Z,20.50
2018-07-04T18:25:58.908Z,20.50
2018-07-04T18:28:38.259Z,20.50
2018-07-04T18:31:18.034Z,20.50
2018-07-04T18:33:57.443Z,20.60
2018-07-04T18:36:37.137Z,20.60
2018-07-04T18:41:50.225Z,20.60
2018-07-04T18:44:29.848Z,20.60
2018-07-04T18:47:09.279Z,20.60
2018-07-04T18:49:48.813Z,20.60
2018-07-04T18:52:28.226Z,20.60
2018-07-04T18:57:41.117Z,20.60
2018-07-04T19:00:20.493Z,20.60
2018-07-04T19:03:00.037Z,20.60
2018-07-04T19:05:39.419Z,20.70
2018-07-04T19:08:18.947Z,20.70
2018-07-04T19:10:58.544Z,20.70
2018-07-04T19:13:37.924Z,20.70
2018-07-04T19:16:17.479Z,20.70
2018-07-04T19:18:57.161Z,20.70
2018-07-04T19:21:36.727Z,20.70
2018-07-04T19:24:16.042Z,20.70
2018-07-04T19:26:55.567Z,20.70
2018-07-04T19:29:34.983Z,20.80
2018-07-04T19:32:14.573Z,20.80
2018-07-04T19:34:54.086Z,20.80
2018-07-04T19:37:33.994Z,20.80
2018-07-04T19:40:13.425Z,20.80
2018-07-04T19:42:52.982Z,20.80
2018-07-04T19:45:32.401Z,20.70
2018-07-04T19:48:12.130Z,20.80
2018-07-04T19:50:51.793Z,20.80
2018-07-04T19:53:31.369Z,20.80
2018-07-04T19:56:10.778Z,20.80
2018-07-04T19:58:50.392Z,20.80
2018-07-04T20:01:29.817Z,20.80
2018-07-04T20:04:09.821Z,20.80
2018-07-04T20:06:50.008Z,20.80
2018-07-04T20:12:03.005Z,20.70
2018-07-04T20:14:42.864Z,20.70
2018-07-04T20:17:22.565Z,20.70
2018-07-04T20:20:02.421Z,20.60
2018-07-04T20:22:41.984Z,20.70
2018-07-04T20:25:21.660Z,20.70
2018-07-04T20:28:03.142Z,20.70
2018-07-04T20:30:45.000Z,20.70
2018-07-04T20:33:27.444Z,20.70
2018-07-04T20:36:09.126Z,20.70
2018-07-04T20:38:51.488Z,20.70
2018-07-04T20:44:08.312Z,20.50
2018-07-04T20:46:49.399Z,20.50
2018-07-04T20:49:29.560Z,20.50
2018-07-04T20:52:09.937Z,20.50
2018-07-04T20:54:51.325Z,20.60
2018-07-04T20:57:32.757Z,20.50
2018-07-04T21:00:14.741Z,20.50
2018-07-04T21:02:55.205Z,20.50
2018-07-04T21:05:35.788Z,20.50
2018-07-04T21:08:16.374Z,20.50
2018-07-04T21:10:56.886Z,20.50
2018-07-04T21:13:30.077Z,20.40
2018-07-04T21:16:09.641Z,20.40
2018-07-04T21:18:43.005Z,20.40
2018-07-04T22:43:25.460Z,20.40
2018-07-04T22:46:04.892Z,19.50
2018-07-04T22:48:37.936Z,19.40
2018-07-04T22:51:17.470Z,19.40
2018-07-04T22:53:56.742Z,19.40
2018-07-04T22:56:36.538Z,19.40
2018-07-04T22:59:15.849Z,19.40
2018-07-04T23:01:55.389Z,19.40
2018-07-04T23:04:34.909Z,19.40
2018-07-04T23:07:14.506Z,19.40
2018-07-04T23:09:47.520Z,19.40
2018-07-04T23:12:27.077Z,19.40
2018-07-04T23:15:06.425Z,19.40
2018-07-04T23:17:45.958Z,19.30
2018-07-04T23:20:25.365Z,19.30
2018-07-04T23:22:58.413Z,19.30
2018-07-04T23:25:31.568Z,19.30
2018-07-04T23:28:11.018Z,19.30
2018-07-04T23:30:50.318Z,19.30
2018-07-04T23:33:29.814Z,19.30
2018-07-04T23:36:09.222Z,19.40
2018-07-04T23:38:48.759Z,19.40
2018-07-04T23:41:28.132Z,19.30
2018-07-04T23:44:07.624Z,19.30
2018-07-04T23:46:47.081Z,19.20
2018-07-04T23:49:26.634Z,19.20
2018-07-04T23:52:06.192Z,19.20
2018-07-04T23:54:39.236Z,19.20
2018-07-04T23:57:12.422Z,19.20
2018-07-04T23:59:51.889Z,19.20
